sensor_id;sensor_type;location;lat;lon;timestamp;P1;durP1;ratioP1;P2;durP2;ratioP2
5077;SDS011;2557;51.390;7.494;2022-12-19T00:03:45;33.50;;;16.00;;
5077;SDS011;2557;51.390;7.494;2022-12-19T00:06:11;31.67;;;14.88;;
5077;SDS011;2557;51.390;7.494;2022-12-19T00:08:39;32.22;;;16.27;;
5077;SDS011;2557;51.390;7.494;2022-12-19T00:11:05;37.20;;;18.13;;
5077;SDS011;2557;51.390;7.494;2022-12-19T00:13:31;31.95;;;16.98;;
5077;SDS011;2557;51.390;7.494;2022-12-19T00:16:01;37.10;;;16.33;;
5077;SDS011;2557;51.390;7.494;2022-12-19T00:18:28;26.15;;;12.38;;
5077;SDS011;2557;51.390;7.494;2022-12-19T00:20:55;30.85;;;16.40;;
5077;SDS011;2557;51.390;7.494;2022-12-19T00:23:21;33.13;;;16.95;;
5077;SDS011;2557;51.390;7.494;2022-12-19T00:25:47;36.53;;;17.60;;
5077;SDS011;2557;51.390;7.494;2022-12-19T00:28:13;36.43;;;17.00;;
5077;SDS011;2557;51.390;7.494;2022-12-19T00:30:39;37.33;;;18.57;;
5077;SDS011;2557;51.390;7.494;2022-12-19T00:33:05;32.33;;;16.53;;
5077;SDS011;2557;51.390;7.494;2022-12-19T00:35:31;33.73;;;17.83;;
5077;SDS011;2557;51.390;7.494;2022-12-19T00:37:57;39.63;;;17.40;;
5077;SDS011;2557;51.390;7.494;2022-12-19T00:40:23;28.50;;;15.80;;
5077;SDS011;2557;51.390;7.494;2022-12-19T00:42:49;35.25;;;19.52;;
5077;SDS011;2557;51.390;7.494;2022-12-19T00:45:15;37.60;;;17.03;;
5077;SDS011;2557;51.390;7.494;2022-12-19T00:47:41;42.38;;;19.48;;
5077;SDS011;2557;51.390;7.494;2022-12-19T00:50:07;38.50;;;18.03;;
5077;SDS011;2557;51.390;7.494;2022-12-19T00:52:33;39.38;;;17.77;;
5077;SDS011;2557;51.390;7.494;2022-12-19T00:54:59;37.50;;;18.63;;
5077;SDS011;2557;51.390;7.494;2022-12-19T00:57:25;36.08;;;16.73;;
5077;SDS011;2557;51.390;7.494;2022-12-19T00:59:51;37.63;;;19.20;;
5077;SDS011;2557;51.390;7.494;2022-12-19T01:02:17;40.50;;;18.80;;
5077;SDS011;2557;51.390;7.494;2022-12-19T01:04:43;36.07;;;16.50;;
5077;SDS011;2557;51.390;7.494;2022-12-19T01:07:09;38.63;;;18.10;;
5077;SDS011;2557;51.390;7.494;2022-12-19T01:09:35;30.55;;;17.10;;
5077;SDS011;2557;51.390;7.494;2022-12-19T01:12:02;42.15;;;19.95;;
5077;SDS011;2557;51.390;7.494;2022-12-19T01:14:47;36.13;;;17.75;;
5077;SDS011;2557;51.390;7.494;2022-12-19T01:17:13;30.88;;;17.05;;
5077;SDS011;2557;51.390;7.494;2022-12-19T01:19:39;34.03;;;17.13;;
5077;SDS011;2557;51.390;7.494;2022-12-19T01:22:05;40.13;;;18.20;;
5077;SDS011;2557;51.390;7.494;2022-12-19T01:24:31;36.40;;;17.53;;
5077;SDS011;2557;51.390;7.494;2022-12-19T01:26:57;34.90;;;18.30;;
5077;SDS011;2557;51.390;7.494;2022-12-19T01:29:23;31.60;;;17.43;;
5077;SDS011;2557;51.390;7.494;2022-12-19T01:31:49;33.47;;;16.70;;
5077;SDS011;2557;51.390;7.494;2022-12-19T01:34:15;29.73;;;17.07;;
5077;SDS011;2557;51.390;7.494;2022-12-19T01:36:41;38.05;;;18.08;;
5077;SDS011;2557;51.390;7.494;2022-12-19T01:39:07;29.80;;;17.57;;
5077;SDS011;2557;51.390;7.494;2022-12-19T01:41:33;40.17;;;17.88;;
5077;SDS011;2557;51.390;7.494;2022-12-19T01:44:00;34.50;;;16.67;;
5077;SDS011;2557;51.390;7.494;2022-12-19T01:46:28;38.40;;;18.55;;
5077;SDS011;2557;51.390;7.494;2022-12-19T01:48:56;32.22;;;17.10;;
5077;SDS011;2557;51.390;7.494;2022-12-19T01:51:23;29.63;;;16.85;;
5077;SDS011;2557;51.390;7.494;2022-12-19T01:53:55;33.50;;;16.52;;
5077;SDS011;2557;51.390;7.494;2022-12-19T01:56:23;32.40;;;15.82;;
5077;SDS011;2557;51.390;7.494;2022-12-19T01:58:51;29.38;;;17.23;;
5077;SDS011;2557;51.390;7.494;2022-12-19T02:01:19;32.95;;;17.13;;
5077;SDS011;2557;51.390;7.494;2022-12-19T02:03:45;31.30;;;17.07;;
5077;SDS011;2557;51.390;7.494;2022-12-19T02:06:12;39.22;;;16.65;;
5077;SDS011;2557;51.390;7.494;2022-12-19T02:08:41;36.55;;;17.23;;
5077;SDS011;2557;51.390;7.494;2022-12-19T02:11:07;31.23;;;16.75;;
5077;SDS011;2557;51.390;7.494;2022-12-19T02:13:33;37.00;;;16.73;;
5077;SDS011;2557;51.390;7.494;2022-12-19T02:29:24;39.33;;;18.40;;
5077;SDS011;2557;51.390;7.494;2022-12-19T02:31:56;30.33;;;14.75;;
5077;SDS011;2557;51.390;7.494;2022-12-19T02:34:27;34.22;;;16.85;;
5077;SDS011;2557;51.390;7.494;2022-12-19T02:36:57;32.63;;;15.73;;
5077;SDS011;2557;51.390;7.494;2022-12-19T02:39:30;32.28;;;17.00;;
5077;SDS011;2557;51.390;7.494;2022-12-19T02:41:58;29.77;;;16.55;;
5077;SDS011;2557;51.390;7.494;2022-12-19T02:44:30;28.77;;;15.07;;
5077;SDS011;2557;51.390;7.494;2022-12-19T02:46:58;27.80;;;16.50;;
5077;SDS011;2557;51.390;7.494;2022-12-19T02:49:26;33.58;;;17.20;;
5077;SDS011;2557;51.390;7.494;2022-12-19T02:51:53;33.72;;;17.38;;
5077;SDS011;2557;51.390;7.494;2022-12-19T02:54:19;33.33;;;18.30;;
5077;SDS011;2557;51.390;7.494;2022-12-19T02:56:50;29.02;;;15.82;;
5077;SDS011;2557;51.390;7.494;2022-12-19T03:02:18;36.28;;;17.33;;
5077;SDS011;2557;51.390;7.494;2022-12-19T03:04:49;30.45;;;15.25;;
5077;SDS011;2557;51.390;7.494;2022-12-19T03:07:23;27.25;;;15.02;;
5077;SDS011;2557;51.390;7.494;2022-12-19T03:09:54;30.13;;;15.63;;
5077;SDS011;2557;51.390;7.494;2022-12-19T03:12:24;26.40;;;13.55;;
5077;SDS011;2557;51.390;7.494;2022-12-19T03:14:51;28.63;;;15.30;;
5077;SDS011;2557;51.390;7.494;2022-12-19T03:17:18;35.40;;;17.25;;
5077;SDS011;2557;51.390;7.494;2022-12-19T03:19:44;30.00;;;15.80;;
5077;SDS011;2557;51.390;7.494;2022-12-19T03:22:10;27.75;;;15.05;;
5077;SDS011;2557;51.390;7.494;2022-12-19T03:24:36;28.73;;;15.20;;
5077;SDS011;2557;51.390;7.494;2022-12-19T03:27:06;25.50;;;14.47;;
5077;SDS011;2557;51.390;7.494;2022-12-19T03:29:37;32.72;;;17.40;;
5077;SDS011;2557;51.390;7.494;2022-12-19T03:32:06;27.50;;;14.93;;
5077;SDS011;2557;51.390;7.494;2022-12-19T03:34:35;26.05;;;14.88;;
5077;SDS011;2557;51.390;7.494;2022-12-19T03:37:04;28.13;;;14.55;;
5077;SDS011;2557;51.390;7.494;2022-12-19T03:39:32;31.33;;;15.80;;
5077;SDS011;2557;51.390;7.494;2022-12-19T03:41:58;32.13;;;15.77;;
5077;SDS011;2557;51.390;7.494;2022-12-19T03:44:45;24.45;;;14.38;;
5077;SDS011;2557;51.390;7.494;2022-12-19T03:47:13;24.50;;;14.07;;
5077;SDS011;2557;51.390;7.494;2022-12-19T03:49:42;27.75;;;15.45;;
5077;SDS011;2557;51.390;7.494;2022-12-19T03:54:42;32.47;;;16.67;;
5077;SDS011;2557;51.390;7.494;2022-12-19T03:57:14;26.73;;;16.15;;
5077;SDS011;2557;51.390;7.494;2022-12-19T03:59:51;32.72;;;13.90;;
5077;SDS011;2557;51.390;7.494;2022-12-19T04:02:20;28.05;;;14.40;;
5077;SDS011;2557;51.390;7.494;2022-12-19T04:04:58;30.77;;;15.98;;
5077;SDS011;2557;51.390;7.494;2022-12-19T04:07:25;25.50;;;14.40;;
5077;SDS011;2557;51.390;7.494;2022-12-19T04:09:51;35.25;;;17.15;;
5077;SDS011;2557;51.390;7.494;2022-12-19T04:12:19;29.38;;;15.43;;
5077;SDS011;2557;51.390;7.494;2022-12-19T04:14:46;28.17;;;14.80;;
5077;SDS011;2557;51.390;7.494;2022-12-19T04:20:01;30.10;;;15.07;;
5077;SDS011;2557;51.390;7.494;2022-12-19T04:22:30;30.88;;;17.52;;
5077;SDS011;2557;51.390;7.494;2022-12-19T04:24:57;28.90;;;16.75;;
5077;SDS011;2557;51.390;7.494;2022-12-19T04:27:24;25.63;;;15.90;;
5077;SDS011;2557;51.390;7.494;2022-12-19T04:29:52;31.90;;;16.00;;
5077;SDS011;2557;51.390;7.494;2022-12-19T04:32:19;32.00;;;15.45;;
5077;SDS011;2557;51.390;7.494;2022-12-19T04:34:45;26.85;;;16.40;;
5077;SDS011;2557;51.390;7.494;2022-12-19T04:37:12;27.67;;;17.48;;
5077;SDS011;2557;51.390;7.494;2022-12-19T04:39:38;29.20;;;16.40;;
5077;SDS011;2557;51.390;7.494;2022-12-19T04:42:04;33.33;;;15.25;;
5077;SDS011;2557;51.390;7.494;2022-12-19T04:44:30;27.75;;;15.50;;
5077;SDS011;2557;51.390;7.494;2022-12-19T04:46:56;29.27;;;15.93;;
5077;SDS011;2557;51.390;7.494;2022-12-19T04:49:22;28.98;;;17.23;;
5077;SDS011;2557;51.390;7.494;2022-12-19T04:51:48;32.58;;;16.90;;
5077;SDS011;2557;51.390;7.494;2022-12-19T04:54:14;32.33;;;17.50;;
5077;SDS011;2557;51.390;7.494;2022-12-19T04:56:40;32.20;;;17.92;;
5077;SDS011;2557;51.390;7.494;2022-12-19T04:59:06;26.77;;;16.57;;
5077;SDS011;2557;51.390;7.494;2022-12-19T05:01:32;25.70;;;15.90;;
5077;SDS011;2557;51.390;7.494;2022-12-19T05:03:58;28.33;;;15.18;;
5077;SDS011;2557;51.390;7.494;2022-12-19T05:06:24;29.07;;;16.57;;
5077;SDS011;2557;51.390;7.494;2022-12-19T05:08:50;29.33;;;15.10;;
5077;SDS011;2557;51.390;7.494;2022-12-19T05:11:17;29.90;;;16.00;;
5077;SDS011;2557;51.390;7.494;2022-12-19T05:13:43;27.58;;;16.08;;
5077;SDS011;2557;51.390;7.494;2022-12-19T05:16:09;27.90;;;15.20;;
5077;SDS011;2557;51.390;7.494;2022-12-19T05:18:36;25.88;;;14.70;;
5077;SDS011;2557;51.390;7.494;2022-12-19T05:21:03;26.42;;;16.25;;
5077;SDS011;2557;51.390;7.494;2022-12-19T05:23:29;26.98;;;15.60;;
5077;SDS011;2557;51.390;7.494;2022-12-19T05:26:01;26.13;;;15.00;;
5077;SDS011;2557;51.390;7.494;2022-12-19T05:28:27;23.60;;;14.90;;
5077;SDS011;2557;51.390;7.494;2022-12-19T05:31:03;22.30;;;14.30;;
5077;SDS011;2557;51.390;7.494;2022-12-19T05:33:30;26.08;;;14.65;;
5077;SDS011;2557;51.390;7.494;2022-12-19T05:35:56;30.45;;;16.35;;
5077;SDS011;2557;51.390;7.494;2022-12-19T05:38:22;26.30;;;13.90;;
5077;SDS011;2557;51.390;7.494;2022-12-19T05:40:48;25.52;;;15.35;;
5077;SDS011;2557;51.390;7.494;2022-12-19T05:43:14;23.73;;;16.00;;
5077;SDS011;2557;51.390;7.494;2022-12-19T05:45:40;23.90;;;15.20;;
5077;SDS011;2557;51.390;7.494;2022-12-19T05:48:06;27.30;;;14.00;;
5077;SDS011;2557;51.390;7.494;2022-12-19T05:50:32;26.02;;;13.90;;
5077;SDS011;2557;51.390;7.494;2022-12-19T05:52:58;24.43;;;14.80;;
5077;SDS011;2557;51.390;7.494;2022-12-19T05:55:24;26.70;;;16.20;;
5077;SDS011;2557;51.390;7.494;2022-12-19T05:57:50;24.20;;;15.43;;
5077;SDS011;2557;51.390;7.494;2022-12-19T06:00:16;18.50;;;13.63;;
5077;SDS011;2557;51.390;7.494;2022-12-19T06:02:42;26.63;;;14.45;;
5077;SDS011;2557;51.390;7.494;2022-12-19T06:05:09;23.23;;;14.63;;
5077;SDS011;2557;51.390;7.494;2022-12-19T06:07:35;23.87;;;13.40;;
5077;SDS011;2557;51.390;7.494;2022-12-19T06:10:01;21.17;;;13.10;;
5077;SDS011;2557;51.390;7.494;2022-12-19T06:12:27;17.65;;;12.18;;
5077;SDS011;2557;51.390;7.494;2022-12-19T06:14:53;18.50;;;13.03;;
5077;SDS011;2557;51.390;7.494;2022-12-19T06:17:19;19.60;;;10.80;;
5077;SDS011;2557;51.390;7.494;2022-12-19T06:19:45;18.63;;;11.57;;
5077;SDS011;2557;51.390;7.494;2022-12-19T06:22:11;20.48;;;12.73;;
5077;SDS011;2557;51.390;7.494;2022-12-19T06:24:37;16.73;;;11.10;;
5077;SDS011;2557;51.390;7.494;2022-12-19T06:27:03;15.37;;;10.83;;
5077;SDS011;2557;51.390;7.494;2022-12-19T06:29:29;16.90;;;11.98;;
5077;SDS011;2557;51.390;7.494;2022-12-19T06:31:55;14.67;;;10.47;;
5077;SDS011;2557;51.390;7.494;2022-12-19T06:34:21;18.93;;;12.10;;
5077;SDS011;2557;51.390;7.494;2022-12-19T06:36:47;14.00;;;10.70;;
5077;SDS011;2557;51.390;7.494;2022-12-19T06:39:14;17.80;;;11.63;;
5077;SDS011;2557;51.390;7.494;2022-12-19T06:41:41;17.52;;;9.70;;
5077;SDS011;2557;51.390;7.494;2022-12-19T06:44:26;20.92;;;11.25;;
5077;SDS011;2557;51.390;7.494;2022-12-19T06:46:52;15.27;;;11.00;;
5077;SDS011;2557;51.390;7.494;2022-12-19T06:49:18;15.10;;;10.05;;
5077;SDS011;2557;51.390;7.494;2022-12-19T06:51:44;14.95;;;9.70;;
5077;SDS011;2557;51.390;7.494;2022-12-19T06:54:11;16.65;;;11.20;;
5077;SDS011;2557;51.390;7.494;2022-12-19T06:56:38;14.55;;;11.00;;
5077;SDS011;2557;51.390;7.494;2022-12-19T06:59:04;15.40;;;11.18;;
5077;SDS011;2557;51.390;7.494;2022-12-19T07:01:39;17.08;;;11.60;;
5077;SDS011;2557;51.390;7.494;2022-12-19T07:04:07;14.70;;;10.88;;
5077;SDS011;2557;51.390;7.494;2022-12-19T07:06:36;18.55;;;11.35;;
5077;SDS011;2557;51.390;7.494;2022-12-19T07:09:02;18.90;;;10.85;;
5077;SDS011;2557;51.390;7.494;2022-12-19T07:11:29;17.77;;;11.77;;
5077;SDS011;2557;51.390;7.494;2022-12-19T07:13:55;14.90;;;11.90;;
5077;SDS011;2557;51.390;7.494;2022-12-19T07:16:21;20.10;;;11.70;;
5077;SDS011;2557;51.390;7.494;2022-12-19T07:18:48;12.55;;;9.52;;
5077;SDS011;2557;51.390;7.494;2022-12-19T07:21:14;15.40;;;11.07;;
5077;SDS011;2557;51.390;7.494;2022-12-19T07:23:41;17.02;;;10.65;;
5077;SDS011;2557;51.390;7.494;2022-12-19T07:26:07;16.80;;;10.50;;
5077;SDS011;2557;51.390;7.494;2022-12-19T07:28:33;15.50;;;11.00;;
5077;SDS011;2557;51.390;7.494;2022-12-19T07:30:59;16.88;;;10.68;;
5077;SDS011;2557;51.390;7.494;2022-12-19T07:33:25;19.25;;;11.40;;
5077;SDS011;2557;51.390;7.494;2022-12-19T07:35:51;20.17;;;11.47;;
5077;SDS011;2557;51.390;7.494;2022-12-19T07:38:17;17.50;;;11.10;;
5077;SDS011;2557;51.390;7.494;2022-12-19T07:40:43;17.20;;;12.40;;
5077;SDS011;2557;51.390;7.494;2022-12-19T07:43:09;18.98;;;11.20;;
5077;SDS011;2557;51.390;7.494;2022-12-19T07:45:36;16.97;;;10.87;;
5077;SDS011;2557;51.390;7.494;2022-12-19T07:48:03;24.13;;;12.18;;
5077;SDS011;2557;51.390;7.494;2022-12-19T07:50:29;18.58;;;11.68;;
5077;SDS011;2557;51.390;7.494;2022-12-19T07:52:56;20.58;;;12.48;;
5077;SDS011;2557;51.390;7.494;2022-12-19T07:55:22;18.23;;;13.30;;
5077;SDS011;2557;51.390;7.494;2022-12-19T07:57:48;21.10;;;12.40;;
5077;SDS011;2557;51.390;7.494;2022-12-19T08:00:14;17.25;;;12.27;;
5077;SDS011;2557;51.390;7.494;2022-12-19T08:02:40;25.65;;;14.82;;
5077;SDS011;2557;51.390;7.494;2022-12-19T08:05:07;21.80;;;13.60;;
5077;SDS011;2557;51.390;7.494;2022-12-19T08:07:33;22.20;;;13.07;;
5077;SDS011;2557;51.390;7.494;2022-12-19T08:09:59;18.83;;;13.25;;
5077;SDS011;2557;51.390;7.494;2022-12-19T08:12:25;24.50;;;13.97;;
5077;SDS011;2557;51.390;7.494;2022-12-19T08:14:51;22.50;;;13.00;;
5077;SDS011;2557;51.390;7.494;2022-12-19T08:17:17;19.20;;;13.10;;
5077;SDS011;2557;51.390;7.494;2022-12-19T08:19:43;19.75;;;12.65;;
5077;SDS011;2557;51.390;7.494;2022-12-19T08:22:09;20.80;;;12.95;;
5077;SDS011;2557;51.390;7.494;2022-12-19T08:24:35;22.07;;;13.70;;
5077;SDS011;2557;51.390;7.494;2022-12-19T08:27:01;23.98;;;14.27;;
5077;SDS011;2557;51.390;7.494;2022-12-19T08:29:28;22.65;;;13.07;;
5077;SDS011;2557;51.390;7.494;2022-12-19T08:31:54;23.95;;;13.25;;
5077;SDS011;2557;51.390;7.494;2022-12-19T08:34:20;22.45;;;13.80;;
5077;SDS011;2557;51.390;7.494;2022-12-19T08:36:46;23.67;;;14.03;;
5077;SDS011;2557;51.390;7.494;2022-12-19T08:39:12;19.30;;;13.30;;
5077;SDS011;2557;51.390;7.494;2022-12-19T08:41:38;17.00;;;12.83;;
5077;SDS011;2557;51.390;7.494;2022-12-19T08:44:04;21.23;;;13.10;;
5077;SDS011;2557;51.390;7.494;2022-12-19T08:46:30;19.63;;;13.38;;
5077;SDS011;2557;51.390;7.494;2022-12-19T08:48:56;18.07;;;12.47;;
5077;SDS011;2557;51.390;7.494;2022-12-19T08:51:21;22.60;;;13.80;;
5077;SDS011;2557;51.390;7.494;2022-12-19T08:53:48;24.65;;;13.95;;
5077;SDS011;2557;51.390;7.494;2022-12-19T08:56:15;21.38;;;12.25;;
5077;SDS011;2557;51.390;7.494;2022-12-19T08:58:42;19.35;;;12.25;;
5077;SDS011;2557;51.390;7.494;2022-12-19T09:01:10;22.27;;;13.53;;
5077;SDS011;2557;51.390;7.494;2022-12-19T09:03:37;19.50;;;12.93;;
5077;SDS011;2557;51.390;7.494;2022-12-19T09:06:05;17.33;;;11.47;;
5077;SDS011;2557;51.390;7.494;2022-12-19T09:08:31;22.20;;;11.83;;
5077;SDS011;2557;51.390;7.494;2022-12-19T09:10:58;17.07;;;11.43;;
5077;SDS011;2557;51.390;7.494;2022-12-19T09:13:25;17.30;;;11.13;;
5077;SDS011;2557;51.390;7.494;2022-12-19T09:16:08;19.43;;;10.80;;
5077;SDS011;2557;51.390;7.494;2022-12-19T09:18:35;19.40;;;11.63;;
5077;SDS011;2557;51.390;7.494;2022-12-19T09:21:01;16.83;;;11.07;;
5077;SDS011;2557;51.390;7.494;2022-12-19T09:23:28;23.73;;;12.97;;
5077;SDS011;2557;51.390;7.494;2022-12-19T09:25:56;22.17;;;12.83;;
5077;SDS011;2557;51.390;7.494;2022-12-19T09:28:22;21.53;;;12.67;;
5077;SDS011;2557;51.390;7.494;2022-12-19T09:30:55;18.57;;;12.47;;
5077;SDS011;2557;51.390;7.494;2022-12-19T09:33:21;20.93;;;12.33;;
5077;SDS011;2557;51.390;7.494;2022-12-19T09:35:48;17.30;;;10.50;;
5077;SDS011;2557;51.390;7.494;2022-12-19T09:38:14;17.43;;;11.97;;
5077;SDS011;2557;51.390;7.494;2022-12-19T09:46:16;15.13;;;10.80;;
5077;SDS011;2557;51.390;7.494;2022-12-19T09:48:44;16.70;;;10.23;;
5077;SDS011;2557;51.390;7.494;2022-12-19T09:51:45;16.50;;;10.70;;
5077;SDS011;2557;51.390;7.494;2022-12-19T09:54:10;18.43;;;11.50;;
5077;SDS011;2557;51.390;7.494;2022-12-19T09:56:39;17.57;;;11.00;;
5077;SDS011;2557;51.390;7.494;2022-12-19T09:59:11;16.60;;;10.90;;
5077;SDS011;2557;51.390;7.494;2022-12-19T10:01:43;16.07;;;10.30;;
5077;SDS011;2557;51.390;7.494;2022-12-19T10:04:12;15.70;;;11.00;;
5077;SDS011;2557;51.390;7.494;2022-12-19T10:06:42;17.97;;;10.40;;
5077;SDS011;2557;51.390;7.494;2022-12-19T10:09:10;15.40;;;9.73;;
5077;SDS011;2557;51.390;7.494;2022-12-19T10:14:40;12.90;;;9.87;;
5077;SDS011;2557;51.390;7.494;2022-12-19T10:20:02;15.57;;;9.53;;
5077;SDS011;2557;51.390;7.494;2022-12-19T10:30:14;16.70;;;10.57;;
5077;SDS011;2557;51.390;7.494;2022-12-19T10:32:46;20.00;;;11.47;;
5077;SDS011;2557;51.390;7.494;2022-12-19T10:35:17;13.20;;;10.03;;
5077;SDS011;2557;51.390;7.494;2022-12-19T10:37:55;17.63;;;11.10;;
5077;SDS011;2557;51.390;7.494;2022-12-19T10:45:18;16.43;;;10.93;;
5077;SDS011;2557;51.390;7.494;2022-12-19T10:47:48;16.07;;;9.20;;
5077;SDS011;2557;51.390;7.494;2022-12-19T10:50:18;14.60;;;10.43;;
5077;SDS011;2557;51.390;7.494;2022-12-19T10:52:50;15.13;;;10.20;;
5077;SDS011;2557;51.390;7.494;2022-12-19T10:55:20;13.50;;;9.30;;
5077;SDS011;2557;51.390;7.494;2022-12-19T10:57:46;15.70;;;9.80;;
5077;SDS011;2557;51.390;7.494;2022-12-19T11:00:14;17.33;;;8.87;;
5077;SDS011;2557;51.390;7.494;2022-12-19T11:02:42;16.60;;;11.20;;
5077;SDS011;2557;51.390;7.494;2022-12-19T11:05:24;14.93;;;10.47;;
5077;SDS011;2557;51.390;7.494;2022-12-19T11:10:33;16.70;;;10.70;;
5077;SDS011;2557;51.390;7.494;2022-12-19T11:13:00;13.80;;;10.40;;
5077;SDS011;2557;51.390;7.494;2022-12-19T11:15:26;16.97;;;10.67;;
5077;SDS011;2557;51.390;7.494;2022-12-19T11:18:05;18.80;;;11.97;;
5077;SDS011;2557;51.390;7.494;2022-12-19T11:20:32;15.57;;;11.70;;
5077;SDS011;2557;51.390;7.494;2022-12-19T11:22:58;17.40;;;11.70;;
5077;SDS011;2557;51.390;7.494;2022-12-19T11:25:40;17.77;;;12.93;;
5077;SDS011;2557;51.390;7.494;2022-12-19T11:28:19;16.37;;;11.00;;
5077;SDS011;2557;51.390;7.494;2022-12-19T11:33:25;15.63;;;10.33;;
5077;SDS011;2557;51.390;7.494;2022-12-19T11:35:52;17.07;;;10.43;;
5077;SDS011;2557;51.390;7.494;2022-12-19T11:38:31;12.83;;;9.00;;
5077;SDS011;2557;51.390;7.494;2022-12-19T11:41:01;17.63;;;10.47;;
5077;SDS011;2557;51.390;7.494;2022-12-19T11:43:30;17.07;;;9.30;;
5077;SDS011;2557;51.390;7.494;2022-12-19T11:48:40;15.37;;;10.23;;
5077;SDS011;2557;51.390;7.494;2022-12-19T11:51:15;13.80;;;8.90;;
5077;SDS011;2557;51.390;7.494;2022-12-19T11:53:58;13.90;;;9.57;;
5077;SDS011;2557;51.390;7.494;2022-12-19T11:56:27;10.83;;;8.33;;
5077;SDS011;2557;51.390;7.494;2022-12-19T11:58:55;12.97;;;9.87;;
5077;SDS011;2557;51.390;7.494;2022-12-19T12:01:44;15.40;;;9.30;;
5077;SDS011;2557;51.390;7.494;2022-12-19T12:06:45;12.07;;;8.30;;
5077;SDS011;2557;51.390;7.494;2022-12-19T12:09:55;18.13;;;9.87;;
5077;SDS011;2557;51.390;7.494;2022-12-19T12:12:11;12.07;;;8.37;;
5077;SDS011;2557;51.390;7.494;2022-12-19T12:17:29;11.17;;;8.33;;
5077;SDS011;2557;51.390;7.494;2022-12-19T12:20:09;15.53;;;9.67;;
5077;SDS011;2557;51.390;7.494;2022-12-19T12:23:00;13.30;;;9.00;;
5077;SDS011;2557;51.390;7.494;2022-12-19T12:25:39;13.47;;;8.80;;
5077;SDS011;2557;51.390;7.494;2022-12-19T12:33:20;12.43;;;9.23;;
5077;SDS011;2557;51.390;7.494;2022-12-19T12:35:54;18.83;;;9.80;;
5077;SDS011;2557;51.390;7.494;2022-12-19T12:38:28;15.10;;;10.07;;
5077;SDS011;2557;51.390;7.494;2022-12-19T12:41:07;16.00;;;10.33;;
5077;SDS011;2557;51.390;7.494;2022-12-19T12:46:13;16.37;;;9.30;;
5077;SDS011;2557;51.390;7.494;2022-12-19T12:48:50;15.93;;;9.77;;
5077;SDS011;2557;51.390;7.494;2022-12-19T12:51:18;13.53;;;9.80;;
5077;SDS011;2557;51.390;7.494;2022-12-19T12:53:45;17.60;;;9.47;;
5077;SDS011;2557;51.390;7.494;2022-12-19T12:56:13;15.50;;;10.87;;
5077;SDS011;2557;51.390;7.494;2022-12-19T13:01:15;14.77;;;11.00;;
5077;SDS011;2557;51.390;7.494;2022-12-19T13:03:42;12.53;;;9.73;;
5077;SDS011;2557;51.390;7.494;2022-12-19T13:06:26;13.33;;;10.33;;
5077;SDS011;2557;51.390;7.494;2022-12-19T13:11:35;12.50;;;10.13;;
5077;SDS011;2557;51.390;7.494;2022-12-19T13:17:00;13.10;;;9.43;;
5077;SDS011;2557;51.390;7.494;2022-12-19T13:19:33;13.10;;;9.70;;
5077;SDS011;2557;51.390;7.494;2022-12-19T13:24:38;14.17;;;8.63;;
5077;SDS011;2557;51.390;7.494;2022-12-19T13:32:19;15.40;;;9.40;;
5077;SDS011;2557;51.390;7.494;2022-12-19T13:37:22;11.10;;;9.07;;
5077;SDS011;2557;51.390;7.494;2022-12-19T13:42:23;12.60;;;9.70;;
5077;SDS011;2557;51.390;7.494;2022-12-19T13:45:12;15.50;;;9.50;;
5077;SDS011;2557;51.390;7.494;2022-12-19T13:47:40;14.00;;;9.63;;
5077;SDS011;2557;51.390;7.494;2022-12-19T13:50:27;13.63;;;8.70;;
5077;SDS011;2557;51.390;7.494;2022-12-19T13:52:54;11.03;;;8.00;;
5077;SDS011;2557;51.390;7.494;2022-12-19T13:55:20;13.20;;;8.67;;
5077;SDS011;2557;51.390;7.494;2022-12-19T13:57:47;11.73;;;7.83;;
5077;SDS011;2557;51.390;7.494;2022-12-19T14:00:19;15.70;;;8.53;;
5077;SDS011;2557;51.390;7.494;2022-12-19T14:02:49;14.53;;;8.63;;
5077;SDS011;2557;51.390;7.494;2022-12-19T14:05:25;12.63;;;8.70;;
5077;SDS011;2557;51.390;7.494;2022-12-19T14:07:52;11.60;;;8.80;;
5077;SDS011;2557;51.390;7.494;2022-12-19T14:10:20;11.47;;;9.00;;
5077;SDS011;2557;51.390;7.494;2022-12-19T14:12:47;14.50;;;8.80;;
5077;SDS011;2557;51.390;7.494;2022-12-19T14:15:34;15.03;;;9.30;;
5077;SDS011;2557;51.390;7.494;2022-12-19T14:20:44;12.70;;;9.47;;
5077;SDS011;2557;51.390;7.494;2022-12-19T14:23:10;12.10;;;8.47;;
5077;SDS011;2557;51.390;7.494;2022-12-19T14:25:50;13.20;;;8.13;;
5077;SDS011;2557;51.390;7.494;2022-12-19T14:28:34;12.47;;;8.07;;
5077;SDS011;2557;51.390;7.494;2022-12-19T14:31:02;15.87;;;9.80;;
5077;SDS011;2557;51.390;7.494;2022-12-19T14:33:38;13.00;;;8.93;;
5077;SDS011;2557;51.390;7.494;2022-12-19T14:36:04;15.73;;;10.10;;
5077;SDS011;2557;51.390;7.494;2022-12-19T14:38:30;10.60;;;8.97;;
5077;SDS011;2557;51.390;7.494;2022-12-19T14:40:57;11.10;;;8.27;;
5077;SDS011;2557;51.390;7.494;2022-12-19T14:43:25;15.87;;;10.00;;
5077;SDS011;2557;51.390;7.494;2022-12-19T14:51:24;10.60;;;8.10;;
5077;SDS011;2557;51.390;7.494;2022-12-19T14:56:33;12.37;;;8.40;;
5077;SDS011;2557;51.390;7.494;2022-12-19T14:59:16;12.10;;;8.00;;
5077;SDS011;2557;51.390;7.494;2022-12-19T15:01:48;10.10;;;7.77;;
5077;SDS011;2557;51.390;7.494;2022-12-19T15:04:16;11.17;;;7.80;;
5077;SDS011;2557;51.390;7.494;2022-12-19T15:06:44;9.67;;;7.57;;
5077;SDS011;2557;51.390;7.494;2022-12-19T15:09:11;11.60;;;8.70;;
5077;SDS011;2557;51.390;7.494;2022-12-19T15:11:43;11.90;;;7.63;;
5077;SDS011;2557;51.390;7.494;2022-12-19T15:14:48;10.77;;;8.53;;
5077;SDS011;2557;51.390;7.494;2022-12-19T15:17:21;10.70;;;7.80;;
5077;SDS011;2557;51.390;7.494;2022-12-19T15:19:48;11.50;;;8.00;;
5077;SDS011;2557;51.390;7.494;2022-12-19T15:22:14;11.87;;;8.57;;
5077;SDS011;2557;51.390;7.494;2022-12-19T15:24:40;10.40;;;7.60;;
5077;SDS011;2557;51.390;7.494;2022-12-19T15:27:14;9.70;;;7.40;;
5077;SDS011;2557;51.390;7.494;2022-12-19T15:29:41;9.37;;;7.20;;
5077;SDS011;2557;51.390;7.494;2022-12-19T15:32:14;11.73;;;7.23;;
5077;SDS011;2557;51.390;7.494;2022-12-19T15:34:40;10.67;;;7.50;;
5077;SDS011;2557;51.390;7.494;2022-12-19T15:37:11;13.20;;;7.97;;
5077;SDS011;2557;51.390;7.494;2022-12-19T15:39:37;11.50;;;7.13;;
5077;SDS011;2557;51.390;7.494;2022-12-19T15:42:03;14.10;;;8.33;;
5077;SDS011;2557;51.390;7.494;2022-12-19T15:44:30;13.53;;;7.60;;
5077;SDS011;2557;51.390;7.494;2022-12-19T15:46:57;7.83;;;7.03;;
5077;SDS011;2557;51.390;7.494;2022-12-19T15:49:23;12.00;;;7.00;;
5077;SDS011;2557;51.390;7.494;2022-12-19T15:51:49;9.63;;;6.40;;
5077;SDS011;2557;51.390;7.494;2022-12-19T15:54:15;9.47;;;6.23;;
5077;SDS011;2557;51.390;7.494;2022-12-19T15:56:42;9.53;;;7.40;;
5077;SDS011;2557;51.390;7.494;2022-12-19T15:59:22;9.23;;;7.27;;
5077;SDS011;2557;51.390;7.494;2022-12-19T16:01:49;13.20;;;7.93;;
5077;SDS011;2557;51.390;7.494;2022-12-19T16:04:15;10.30;;;7.20;;
5077;SDS011;2557;51.390;7.494;2022-12-19T16:06:41;10.00;;;7.43;;
5077;SDS011;2557;51.390;7.494;2022-12-19T16:09:16;10.80;;;8.77;;
5077;SDS011;2557;51.390;7.494;2022-12-19T16:11:43;9.90;;;8.90;;
5077;SDS011;2557;51.390;7.494;2022-12-19T16:14:09;11.20;;;7.80;;
5077;SDS011;2557;51.390;7.494;2022-12-19T16:16:38;8.93;;;7.90;;
5077;SDS011;2557;51.390;7.494;2022-12-19T16:21:59;10.50;;;9.33;;
5077;SDS011;2557;51.390;7.494;2022-12-19T16:24:26;7.63;;;6.60;;
5077;SDS011;2557;51.390;7.494;2022-12-19T16:26:56;10.60;;;7.87;;
5077;SDS011;2557;51.390;7.494;2022-12-19T16:29:26;6.70;;;5.97;;
5077;SDS011;2557;51.390;7.494;2022-12-19T16:31:52;8.20;;;6.30;;
5077;SDS011;2557;51.390;7.494;2022-12-19T16:34:19;7.90;;;6.00;;
5077;SDS011;2557;51.390;7.494;2022-12-19T16:36:46;6.40;;;5.77;;
5077;SDS011;2557;51.390;7.494;2022-12-19T16:39:12;6.60;;;6.00;;
5077;SDS011;2557;51.390;7.494;2022-12-19T16:41:39;6.00;;;5.50;;
5077;SDS011;2557;51.390;7.494;2022-12-19T16:44:11;10.50;;;6.93;;
5077;SDS011;2557;51.390;7.494;2022-12-19T16:46:39;11.10;;;7.47;;